createdAt,value
2017-12-29T00:00:39.135Z,75.64
2017-12-29T00:01:19.700Z,75.74
2017-12-29T00:02:00.294Z,75.74
2017-12-29T00:02:40.891Z,75.45
2017-12-29T00:03:21.439Z,75.64
2017-12-29T00:04:01.989Z,76.03
2017-12-29T00:04:42.554Z,75.64
2017-12-29T00:05:23.117Z,75.84
2017-12-29T00:06:03.697Z,75.74
2017-12-29T00:06:44.260Z,75.64
2017-12-29T00:07:24.819Z,75.64
2017-12-29T00:08:05.408Z,75.36
2017-12-29T00:08:46.010Z,75.55
2017-12-29T00:09:26.562Z,75.55
2017-12-29T00:10:07.123Z,75.64
2017-12-29T00:10:47.686Z,75.84
2017-12-29T00:11:28.331Z,75.84
2017-12-29T00:12:08.918Z,75.74
2017-12-29T00:12:49.486Z,75.74
2017-12-29T00:13:30.035Z,75.64
2017-12-29T00:14:10.602Z,75.64
2017-12-29T00:14:51.162Z,75.93
2017-12-29T00:15:31.721Z,76.03
2017-12-29T00:16:12.283Z,75.89
2017-12-29T00:16:52.883Z,75.89
2017-12-29T00:17:33.456Z,76.46
2017-12-29T00:18:14.028Z,76.27
2017-12-29T00:18:54.586Z,75.7
2017-12-29T00:19:35.173Z,75.89
2017-12-29T00:20:15.743Z,76.36
2017-12-29T00:20:56.309Z,76.27
2017-12-29T00:21:36.873Z,75.98
2017-12-29T00:22:17.458Z,75.89
2017-12-29T00:22:58.031Z,76.27
2017-12-29T00:23:38.596Z,76.36
2017-12-29T00:24:19.167Z,76.55
2017-12-29T00:24:59.739Z,76.55
2017-12-29T00:25:41.971Z,75.98
2017-12-29T00:26:22.555Z,75.98
2017-12-29T00:27:03.123Z,75.98
2017-12-29T00:27:43.697Z,76.17
2017-12-29T00:28:24.276Z,76.46
2017-12-29T00:29:04.848Z,76.36
2017-12-29T00:29:45.441Z,76.46
2017-12-29T00:30:26.011Z,76.36
2017-12-29T00:31:06.581Z,76.55
2017-12-29T00:31:47.146Z,76.27
2017-12-29T00:32:27.730Z,76.46
2017-12-29T00:33:08.307Z,76.27
2017-12-29T00:33:48.868Z,76.55
2017-12-29T00:34:29.422Z,76.65
2017-12-29T00:35:09.976Z,76.27
2017-12-29T00:35:50.546Z,76.74
2017-12-29T00:36:31.104Z,76.27
2017-12-29T00:37:11.718Z,76.46
2017-12-29T00:37:52.282Z,76.27
2017-12-29T00:38:32.846Z,76.55
2017-12-29T00:39:13.405Z,76.55
2017-12-29T00:39:53.995Z,76.74
2017-12-29T00:40:34.555Z,76.36
2017-12-29T00:41:15.119Z,76.46
2017-12-29T00:41:55.680Z,76.36
2017-12-29T00:42:36.232Z,75.89
2017-12-29T00:43:16.784Z,76.36
2017-12-29T00:43:57.356Z,76.17
2017-12-29T00:44:37.905Z,76.55
2017-12-29T00:45:18.469Z,76.65
2017-12-29T00:45:59.022Z,76.74
2017-12-29T00:46:39.585Z,77.03
2017-12-29T00:47:20.141Z,77.12
2017-12-29T00:48:00.703Z,77.12
2017-12-29T00:48:41.267Z,77.12
2017-12-29T00:49:21.877Z,76.93
2017-12-29T00:50:02.448Z,76.93
2017-12-29T00:50:43.014Z,76.74
2017-12-29T00:51:23.567Z,76.55
2017-12-29T00:52:04.131Z,76.65
2017-12-29T00:52:44.719Z,77.22
2017-12-29T00:53:25.313Z,76.93
2017-12-29T00:54:05.884Z,77.03
2017-12-29T00:54:46.441Z,77.12
2017-12-29T00:55:27.008Z,77.31
2017-12-29T00:56:07.628Z,76.93
2017-12-29T00:56:48.190Z,76.93
2017-12-29T00:57:28.741Z,77.03
2017-12-29T00:58:09.328Z,77.03
2017-12-29T00:58:49.897Z,77.03
2017-12-29T00:59:30.502Z,76.93
2017-12-29T01:00:11.085Z,77.03
2017-12-29T01:00:51.674Z,77.03
2017-12-29T01:01:32.249Z,77.12
2017-12-29T01:02:12.829Z,76.65
2017-12-29T01:02:53.390Z,76.84
2017-12-29T01:03:33.956Z,77.12
2017-12-29T01:04:14.605Z,77.03
2017-12-29T01:04:55.175Z,76.84
2017-12-29T01:05:35.750Z,77.12
2017-12-29T01:06:16.310Z,77.03
2017-12-29T01:06:56.880Z,76.74
2017-12-29T01:07:37.434Z,76.84
2017-12-29T01:08:17.996Z,77.03
2017-12-29T01:08:58.591Z,77.12
2017-12-29T01:09:39.161Z,76.55
2017-12-29T01:10:19.755Z,76.93
2017-12-29T01:11:00.353Z,76.93
2017-12-29T01:11:40.910Z,76.74
2017-12-29T01:12:21.487Z,77.22
2017-12-29T01:13:02.062Z,76.74
2017-12-29T01:13:42.659Z,76.93
2017-12-29T01:14:23.257Z,77.03
2017-12-29T01:15:03.862Z,76.93
2017-12-29T01:15:44.424Z,76.93
2017-12-29T01:16:24.997Z,77.03
2017-12-29T01:17:05.568Z,76.84
2017-12-29T01:17:46.144Z,77.03
2017-12-29T01:18:26.706Z,77.03
2017-12-29T01:19:07.287Z,76.74
2017-12-29T01:19:47.851Z,76.55
2017-12-29T01:20:28.462Z,76.65
2017-12-29T01:21:08.996Z,76.65
2017-12-29T01:21:49.556Z,76.84
2017-12-29T01:22:30.116Z,77.03
2017-12-29T01:23:10.673Z,77.22
2017-12-29T01:23:51.236Z,77.12
2017-12-29T01:24:31.797Z,76.93
2017-12-29T01:25:12.363Z,77.12
2017-12-29T01:25:52.931Z,76.93
2017-12-29T01:26:33.492Z,77.03
2017-12-29T01:27:14.051Z,77.03
2017-12-29T01:27:54.618Z,77.03
2017-12-29T01:28:35.175Z,77.03
2017-12-29T01:29:15.756Z,76.93
2017-12-29T01:29:56.329Z,76.84
2017-12-29T01:30:36.891Z,77.12
2017-12-29T01:31:17.450Z,76.74
2017-12-29T01:31:58.025Z,77.22
2017-12-29T01:32:38.593Z,76.65
2017-12-29T01:33:19.170Z,76.55
2017-12-29T01:33:59.742Z,76.46
2017-12-29T01:34:40.345Z,76.36
2017-12-29T01:35:20.909Z,76.55
2017-12-29T01:36:01.476Z,76.74
2017-12-29T01:36:42.040Z,76.36
2017-12-29T01:37:22.602Z,76.65
2017-12-29T01:38:03.170Z,76.74
2017-12-29T01:38:43.743Z,76.55
2017-12-29T01:39:24.306Z,76.65
2017-12-29T01:40:04.866Z,76.65
2017-12-29T01:40:45.542Z,76.27
2017-12-29T01:41:26.097Z,76.65
2017-12-29T01:42:06.653Z,76.74
2017-12-29T01:42:47.240Z,76.65
2017-12-29T01:43:27.803Z,76.84
2017-12-29T01:44:08.360Z,77.03
2017-12-29T01:44:48.916Z,76.93
2017-12-29T01:45:29.466Z,76.84
2017-12-29T01:46:10.024Z,77.31
2017-12-29T01:46:50.582Z,77.31
2017-12-29T01:47:31.144Z,76.74
2017-12-29T01:48:15.005Z,77.12
2017-12-29T01:48:55.577Z,77.03
2017-12-29T01:49:36.128Z,77.03
2017-12-29T01:50:16.692Z,77.12
2017-12-29T01:50:57.243Z,77.12
2017-12-29T01:51:37.796Z,76.74
2017-12-29T01:52:18.375Z,77.12
2017-12-29T01:52:58.929Z,77.12
2017-12-29T01:53:39.505Z,76.74
2017-12-29T01:54:20.065Z,76.93
2017-12-29T01:55:00.667Z,77.03
2017-12-29T01:55:41.267Z,77.12
2017-12-29T01:56:21.833Z,77.5
2017-12-29T01:57:02.401Z,77.4
2017-12-29T01:57:42.953Z,77.31
2017-12-29T01:58:23.515Z,77.59
2017-12-29T01:59:04.088Z,77.69
2017-12-29T01:59:44.668Z,77.69
2017-12-29T02:00:25.238Z,77.69
2017-12-29T02:01:05.797Z,77.4
2017-12-29T02:01:46.360Z,77.88
2017-12-29T02:02:26.913Z,77.12
2017-12-29T02:03:07.491Z,77.12
2017-12-29T02:03:48.056Z,77.03
2017-12-29T02:04:28.615Z,76.93
2017-12-29T02:05:09.206Z,76.93
2017-12-29T02:05:49.768Z,76.93
2017-12-29T02:06:30.341Z,77.22
2017-12-29T02:07:10.906Z,77.12
2017-12-29T02:07:51.487Z,76.93
2017-12-29T02:08:32.057Z,77.03
2017-12-29T02:09:12.619Z,77.03
2017-12-29T02:09:53.182Z,76.46
2017-12-29T02:10:33.744Z,76.84
2017-12-29T02:11:14.310Z,76.55
2017-12-29T02:11:54.869Z,76.93
2017-12-29T02:12:35.438Z,77.03
2017-12-29T02:13:16.046Z,76.93
2017-12-29T02:13:56.585Z,76.93
2017-12-29T02:14:37.200Z,77.12
2017-12-29T02:15:17.793Z,77.12
2017-12-29T02:15:58.383Z,77.03
2017-12-29T02:16:38.944Z,77.03
2017-12-29T02:17:19.500Z,76.74
2017-12-29T02:18:00.078Z,76.84
2017-12-29T02:18:40.638Z,77.03
2017-12-29T02:19:21.196Z,76.74
2017-12-29T02:20:01.785Z,76.74
2017-12-29T02:20:42.370Z,77.4
2017-12-29T02:21:22.950Z,77.22
2017-12-29T02:22:03.534Z,76.93
2017-12-29T02:22:44.109Z,76.74
2017-12-29T02:23:24.707Z,77.03
2017-12-29T02:24:05.272Z,77.03
2017-12-29T02:24:45.838Z,77.03
2017-12-29T02:25:26.398Z,76.93
2017-12-29T02:26:07.031Z,76.74
2017-12-29T02:26:47.631Z,76.74
2017-12-29T02:27:28.229Z,76.65
2017-12-29T02:28:08.775Z,76.55
2017-12-29T02:28:49.390Z,76.74
2017-12-29T02:29:29.954Z,76.55
2017-12-29T02:30:10.538Z,76.46
2017-12-29T02:30:51.103Z,76.55
2017-12-29T02:31:31.675Z,76.74
2017-12-29T02:32:12.234Z,76.74
2017-12-29T02:32:52.817Z,76.65
2017-12-29T02:33:33.389Z,76.55
2017-12-29T02:34:13.979Z,76.74
2017-12-29T02:34:54.537Z,76.55
2017-12-29T02:35:35.096Z,76.46
2017-12-29T02:36:15.661Z,76.74
2017-12-29T02:36:56.236Z,76.55
2017-12-29T02:37:36.792Z,76.74
2017-12-29T02:38:17.345Z,77.12
2017-12-29T02:38:57.899Z,77.12
2017-12-29T02:39:38.473Z,77.03
2017-12-29T02:40:19.060Z,77.03
2017-12-29T02:40:59.616Z,76.74
2017-12-29T02:41:40.187Z,77.12
2017-12-29T02:42:20.768Z,77.03
2017-12-29T02:43:01.364Z,77.03
2017-12-29T02:43:41.921Z,77.12
2017-12-29T02:44:22.494Z,76.46
2017-12-29T02:45:03.049Z,76.27
2017-12-29T02:45:43.601Z,76.84
2017-12-29T02:46:24.185Z,76.55
2017-12-29T02:47:04.748Z,76.36
2017-12-29T02:47:45.318Z,76.36
2017-12-29T02:48:25.890Z,76.74
2017-12-29T02:49:06.475Z,76.55
2017-12-29T02:49:47.025Z,76.65
2017-12-29T02:50:27.582Z,76.65
2017-12-29T02:51:08.148Z,76.74
2017-12-29T02:51:48.697Z,76.65
2017-12-29T02:52:29.269Z,76.46
2017-12-29T02:53:09.835Z,76.55
2017-12-29T02:53:50.398Z,76.55
2017-12-29T02:54:30.964Z,76.65
2017-12-29T02:55:11.521Z,76.55
2017-12-29T02:55:52.078Z,76.65
2017-12-29T02:56:32.694Z,76.74
2017-12-29T02:57:13.285Z,76.46
2017-12-29T02:57:53.874Z,76.36
2017-12-29T02:58:34.495Z,76.27
2017-12-29T02:59:15.100Z,76.55
2017-12-29T02:59:55.700Z,76.46
2017-12-29T03:00:36.266Z,76.36
2017-12-29T03:01:16.853Z,76.36
2017-12-29T03:01:57.410Z,76.17
2017-12-29T03:02:37.973Z,76.46
2017-12-29T03:03:18.525Z,76.36
2017-12-29T03:03:59.085Z,76.36
2017-12-29T03:04:39.643Z,76.65
2017-12-29T03:05:20.206Z,76.55
2017-12-29T03:06:00.769Z,76.46
2017-12-29T03:06:41.344Z,76.65
2017-12-29T03:07:21.903Z,76.36
2017-12-29T03:08:02.467Z,76.74
2017-12-29T03:08:43.031Z,76.84
2017-12-29T03:09:23.587Z,76.74
2017-12-29T03:10:04.163Z,76.36
2017-12-29T03:10:44.725Z,76.65
2017-12-29T03:11:25.294Z,76.55
2017-12-29T03:12:05.858Z,76.55
2017-12-29T03:12:46.438Z,76.27
2017-12-29T03:13:27.039Z,76.65
2017-12-29T03:14:07.623Z,76.65
2017-12-29T03:14:48.189Z,76.84
2017-12-29T03:15:28.739Z,76.74
2017-12-29T03:16:09.305Z,76.74
2017-12-29T03:16:49.875Z,76.55
2017-12-29T03:17:30.441Z,76.65
2017-12-29T03:18:11.032Z,77.5
2017-12-29T03:18:51.589Z,77.31
2017-12-29T03:19:32.179Z,76.93
2017-12-29T03:20:12.735Z,76.74
2017-12-29T03:20:53.293Z,76.93
2017-12-29T03:21:33.867Z,77.22
2017-12-29T03:22:14.430Z,76.46
2017-12-29T03:22:54.986Z,76.55
2017-12-29T03:23:35.555Z,76.74
2017-12-29T03:24:16.131Z,76.74
2017-12-29T03:24:56.696Z,76.55
2017-12-29T03:25:37.264Z,76.84
2017-12-29T03:26:17.824Z,76.74
2017-12-29T03:26:58.389Z,76.74
2017-12-29T03:27:38.984Z,76.84
2017-12-29T03:28:19.546Z,76.93
2017-12-29T03:29:00.101Z,77.03
2017-12-29T03:29:40.673Z,76.93
2017-12-29T03:30:21.231Z,76.93
2017-12-29T03:31:01.793Z,77.03
2017-12-29T03:31:42.353Z,77.12
2017-12-29T03:32:22.907Z,76.74
2017-12-29T03:33:03.466Z,76.74
2017-12-29T03:33:44.028Z,76.55
2017-12-29T03:34:24.586Z,76.84
2017-12-29T03:35:05.173Z,76.93
2017-12-29T03:35:45.733Z,76.93
2017-12-29T03:36:26.295Z,76.93
2017-12-29T03:37:06.857Z,76.93
2017-12-29T03:37:47.459Z,77.22
2017-12-29T03:38:28.015Z,77.12
2017-12-29T03:39:08.569Z,76.93
2017-12-29T03:39:49.130Z,76.74
2017-12-29T03:40:29.713Z,76.74
2017-12-29T03:41:10.278Z,76.84
2017-12-29T03:41:50.849Z,76.36
2017-12-29T03:42:31.398Z,76.46
2017-12-29T03:43:11.955Z,76.46
2017-12-29T03:43:52.514Z,76.36
2017-12-29T03:44:33.063Z,76.46
2017-12-29T03:45:13.642Z,76.65
2017-12-29T03:45:54.264Z,76.74
2017-12-29T03:46:34.837Z,76.36
2017-12-29T03:47:15.406Z,76.74
2017-12-29T03:47:55.961Z,76.65
2017-12-29T03:48:36.533Z,76.65
2017-12-29T03:49:17.101Z,76.55
2017-12-29T03:49:57.660Z,76.65
2017-12-29T03:50:38.226Z,76.55
2017-12-29T03:51:18.794Z,76.36
2017-12-29T03:51:59.384Z,76.74
2017-12-29T03:52:39.945Z,77.22
2017-12-29T03:53:20.506Z,77.12
2017-12-29T03:54:01.062Z,77.22
2017-12-29T03:54:41.649Z,76.84
2017-12-29T03:55:22.243Z,76.93
2017-12-29T03:56:02.805Z,77.18
2017-12-29T03:56:43.403Z,77.31
2017-12-29T03:57:23.968Z,76.84
2017-12-29T03:58:04.522Z,76.74
2017-12-29T03:58:45.128Z,76.7
2017-12-29T03:59:25.700Z,77.03
2017-12-29T04:00:06.289Z,76.61
2017-12-29T04:00:47.573Z,77.12
2017-12-29T04:01:28.190Z,76.65
2017-12-29T04:02:08.761Z,76.65
2017-12-29T04:02:49.317Z,76.93
2017-12-29T04:03:29.887Z,76.74
2017-12-29T04:04:10.449Z,77.22
2017-12-29T04:04:51.064Z,76.93
2017-12-29T04:05:31.645Z,76.89
2017-12-29T04:06:12.212Z,77.08
2017-12-29T04:06:52.790Z,76.99
2017-12-29T04:07:33.351Z,76.99
2017-12-29T04:08:13.943Z,76.99
2017-12-29T04:08:54.501Z,76.7
2017-12-29T04:09:35.057Z,76.89
2017-12-29T04:10:15.628Z,76.99
2017-12-29T04:10:56.196Z,77.27
2017-12-29T04:11:36.758Z,77.27
2017-12-29T04:12:17.315Z,77.65
2017-12-29T04:12:57.867Z,77.56
2017-12-29T04:13:38.433Z,77.65
2017-12-29T04:14:18.984Z,77.37
2017-12-29T04:14:59.538Z,77.37
2017-12-29T04:15:40.096Z,77.75
2017-12-29T04:16:20.688Z,77.65
2017-12-29T04:17:01.257Z,77.75
2017-12-29T04:17:41.849Z,77.65
2017-12-29T04:18:22.417Z,77.46
2017-12-29T04:19:02.979Z,77.84
2017-12-29T04:19:43.529Z,77.27
2017-12-29T04:20:24.117Z,77.65
2017-12-29T04:21:04.681Z,77.84
2017-12-29T04:21:45.235Z,77.94
2017-12-29T04:22:25.797Z,77.75
2017-12-29T04:23:06.366Z,77.75
2017-12-29T04:23:46.921Z,77.75
2017-12-29T04:24:27.489Z,77.75
2017-12-29T04:25:08.077Z,77.84
2017-12-29T04:25:48.631Z,77.75
2017-12-29T04:26:29.185Z,77.75
2017-12-29T04:27:09.735Z,77.75
2017-12-29T04:27:50.289Z,77.75
2017-12-29T04:28:30.848Z,77.84
2017-12-29T04:29:11.415Z,77.84
2017-12-29T04:29:51.985Z,77.94
2017-12-29T04:30:32.576Z,78.03
2017-12-29T04:31:13.150Z,77.65
2017-12-29T04:31:53.743Z,77.65
2017-12-29T04:32:34.312Z,77.75
2017-12-29T04:33:14.882Z,77.94
2017-12-29T04:33:55.446Z,77.75
2017-12-29T04:34:36.014Z,77.65
2017-12-29T04:35:16.587Z,78.41
2017-12-29T04:35:57.153Z,78.41
2017-12-29T04:36:37.723Z,78.5
2017-12-29T04:37:18.281Z,78.22
2017-12-29T04:37:58.850Z,77.65
2017-12-29T04:38:39.410Z,78.03
2017-12-29T04:39:19.998Z,77.75
2017-12-29T04:40:00.574Z,77.94
2017-12-29T04:40:41.126Z,77.65
2017-12-29T04:41:21.701Z,77.75
2017-12-29T04:42:02.263Z,78.5
2017-12-29T04:42:42.873Z,78.31
2017-12-29T04:43:23.431Z,78.22
2017-12-29T04:44:04.020Z,78.22
2017-12-29T04:44:44.608Z,78.41
2017-12-29T04:45:25.189Z,78.22
2017-12-29T04:46:05.755Z,78.31
2017-12-29T04:46:46.310Z,78.41
2017-12-29T04:47:26.872Z,78.13
2017-12-29T04:48:07.451Z,78.41
2017-12-29T04:48:48.024Z,78.03
2017-12-29T04:49:28.590Z,78.41
2017-12-29T04:50:09.153Z,78.31
2017-12-29T04:50:50.561Z,78.13
2017-12-29T04:51:31.110Z,78.22
2017-12-29T04:52:11.703Z,78.22
2017-12-29T04:52:52.266Z,78.59
2017-12-29T04:53:32.838Z,78.79
2017-12-29T04:54:13.398Z,78.59
2017-12-29T04:54:53.960Z,78.79
2017-12-29T04:55:34.518Z,78.03
2017-12-29T04:56:15.102Z,78.41
2017-12-29T04:56:55.669Z,78.31
2017-12-29T04:57:36.250Z,78.79
2017-12-29T04:58:16.813Z,78.59
2017-12-29T04:58:57.372Z,78.79
2017-12-29T04:59:37.956Z,78.88
2017-12-29T05:00:18.512Z,78.5
2017-12-29T05:00:59.069Z,78.03
2017-12-29T05:01:39.636Z,78.31
2017-12-29T05:02:20.202Z,78.22
2017-12-29T05:03:00.773Z,78.31
2017-12-29T05:03:41.363Z,78.88
2017-12-29T05:04:21.953Z,78.59
2017-12-29T05:05:02.516Z,78.79
2017-12-29T05:05:43.094Z,78.88
2017-12-29T05:06:23.655Z,78.98
2017-12-29T05:07:04.229Z,78.79
2017-12-29T05:07:44.806Z,78.98
2017-12-29T05:08:25.363Z,78.59
2017-12-29T05:09:05.914Z,78.59
2017-12-29T05:09:46.476Z,78.59
2017-12-29T05:10:27.037Z,78.69
2017-12-29T05:11:07.599Z,78.79
2017-12-29T05:11:48.173Z,78.59
2017-12-29T05:12:28.729Z,78.69
2017-12-29T05:13:09.298Z,78.69
2017-12-29T05:13:49.864Z,78.98
2017-12-29T05:14:30.438Z,78.98
2017-12-29T05:15:11.029Z,78.69
2017-12-29T05:15:51.614Z,79.26
2017-12-29T05:16:32.199Z,79.17
2017-12-29T05:17:12.762Z,78.79
2017-12-29T05:17:53.332Z,79.07
2017-12-29T05:18:33.911Z,79.17
2017-12-29T05:19:14.486Z,79.36
2017-12-29T05:19:55.049Z,79.17
2017-12-29T05:20:35.610Z,79.36
2017-12-29T05:21:16.170Z,79.17
2017-12-29T05:21:56.738Z,79.64
2017-12-29T05:22:37.291Z,78.79
2017-12-29T05:23:17.842Z,78.69
2017-12-29T05:23:58.407Z,78.69
2017-12-29T05:24:38.967Z,79.64
2017-12-29T05:25:19.551Z,79.07
2017-12-29T05:26:00.144Z,79.17
2017-12-29T05:26:40.742Z,79.17
2017-12-29T05:27:21.301Z,79.07
2017-12-29T05:28:01.864Z,79.07
2017-12-29T05:28:42.439Z,79.07
2017-12-29T05:29:23.020Z,79.17
2017-12-29T05:30:03.579Z,79.17
2017-12-29T05:30:44.145Z,79.55
2017-12-29T05:31:24.713Z,79.17
2017-12-29T05:32:05.277Z,79.17
2017-12-29T05:32:45.842Z,79.17
2017-12-29T05:33:26.401Z,79.45
2017-12-29T05:34:06.962Z,79.07
2017-12-29T05:34:47.520Z,79.17
2017-12-29T05:35:30.852Z,79.17
2017-12-29T05:36:11.420Z,79.64
2017-12-29T05:36:51.986Z,79.45
2017-12-29T05:37:32.549Z,79.17
2017-12-29T05:38:13.119Z,79.45
2017-12-29T05:38:53.687Z,79.26
2017-12-29T05:39:34.257Z,79.36
2017-12-29T05:40:14.848Z,79.26
2017-12-29T05:40:55.447Z,79.17
2017-12-29T05:41:36.010Z,79.55
2017-12-29T05:42:16.568Z,79.36
2017-12-29T05:42:57.118Z,79.36
2017-12-29T05:43:37.684Z,79.17
2017-12-29T05:44:18.292Z,79.93
2017-12-29T05:44:58.845Z,80.02
2017-12-29T05:45:39.406Z,79.83
2017-12-29T05:46:19.972Z,79.64
2017-12-29T05:47:00.525Z,80.11
2017-12-29T05:47:41.090Z,80.02
2017-12-29T05:48:21.648Z,79.93
2017-12-29T05:49:02.203Z,79.83
2017-12-29T05:49:42.760Z,80.11
2017-12-29T05:50:23.321Z,80.11
2017-12-29T05:51:03.876Z,79.93
2017-12-29T05:51:44.428Z,79.64
2017-12-29T05:52:25.004Z,79.83
2017-12-29T05:53:05.587Z,79.93
2017-12-29T05:53:46.145Z,79.83
2017-12-29T05:54:26.695Z,79.93
2017-12-29T05:55:07.263Z,79.93
2017-12-29T05:55:47.852Z,79.83
2017-12-29T05:56:28.420Z,79.83
2017-12-29T05:57:08.976Z,80.02
2017-12-29T05:57:49.529Z,80.02
2017-12-29T05:58:30.125Z,80.21
2017-12-29T05:59:10.705Z,80.21
2017-12-29T05:59:51.311Z,80.11
2017-12-29T06:00:31.861Z,80.21
2017-12-29T06:01:12.466Z,80.21
2017-12-29T06:01:53.026Z,80.4
2017-12-29T06:02:33.608Z,80.11
2017-12-29T06:03:14.162Z,80.11
2017-12-29T06:03:54.729Z,80.11
2017-12-29T06:04:35.301Z,80.11
2017-12-29T06:05:15.870Z,79.93
2017-12-29T06:05:56.461Z,80.58
2017-12-29T06:06:37.016Z,80.4
2017-12-29T06:07:17.586Z,80.4
2017-12-29T06:07:58.151Z,80.49
2017-12-29T06:08:38.713Z,80.3
2017-12-29T06:09:19.263Z,80.77
2017-12-29T06:09:59.821Z,80.68
2017-12-29T06:10:40.378Z,80.4
2017-12-29T06:11:20.959Z,80.58
2017-12-29T06:12:01.523Z,80.58
2017-12-29T06:12:42.088Z,80.4
2017-12-29T06:13:22.668Z,80.11
2017-12-29T06:14:03.233Z,80.21
2017-12-29T06:14:43.820Z,80.21
2017-12-29T06:15:24.405Z,80.3
2017-12-29T06:16:04.975Z,79.83
2017-12-29T06:16:45.535Z,79.93
2017-12-29T06:17:26.095Z,79.83
2017-12-29T06:18:06.666Z,80.11
2017-12-29T06:18:47.238Z,79.83
2017-12-29T06:19:27.799Z,79.74
2017-12-29T06:20:08.360Z,79.74
2017-12-29T06:20:48.947Z,80.21
2017-12-29T06:21:29.519Z,79.93
2017-12-29T06:22:10.080Z,80.02
2017-12-29T06:22:50.692Z,80.49
2017-12-29T06:23:31.258Z,79.93
2017-12-29T06:24:11.843Z,80.02
2017-12-29T06:24:52.396Z,80.21
2017-12-29T06:25:32.960Z,80.11
2017-12-29T06:26:13.529Z,79.93
2017-12-29T06:26:54.112Z,80.11
2017-12-29T06:27:34.665Z,79.93
2017-12-29T06:28:15.247Z,80.11
2017-12-29T06:28:55.810Z,80.11
2017-12-29T06:29:36.379Z,80.21
2017-12-29T06:30:16.938Z,80.49
2017-12-29T06:30:57.496Z,80.68
2017-12-29T06:31:38.090Z,80.11
2017-12-29T06:32:18.650Z,80.11
2017-12-29T06:32:59.219Z,79.93
2017-12-29T06:33:39.779Z,79.93
2017-12-29T06:34:20.327Z,80.3
2017-12-29T06:35:00.891Z,80.4
2017-12-29T06:35:41.448Z,80.21
2017-12-29T06:36:22.019Z,80.4
2017-12-29T06:37:02.585Z,80.4
2017-12-29T06:37:43.143Z,80.11
2017-12-29T06:38:23.700Z,80.3
2017-12-29T06:39:04.280Z,80.11
2017-12-29T06:39:44.852Z,80.49
2017-12-29T06:40:25.415Z,80.11
2017-12-29T06:41:05.975Z,80.02
2017-12-29T06:41:46.548Z,79.83
2017-12-29T06:42:27.106Z,80.02
2017-12-29T06:43:07.667Z,79.83
2017-12-29T06:43:48.276Z,79.93
2017-12-29T06:44:28.813Z,79.83
2017-12-29T06:45:09.383Z,80.11
2017-12-29T06:45:49.949Z,79.93
2017-12-29T06:46:30.513Z,80.02
2017-12-29T06:47:11.075Z,79.74
2017-12-29T06:47:51.635Z,79.74
2017-12-29T06:48:32.194Z,79.64
2017-12-29T06:49:12.757Z,80.02
2017-12-29T06:49:53.329Z,79.93
2017-12-29T06:50:33.893Z,79.93
2017-12-29T06:51:14.468Z,79.74
2017-12-29T06:51:55.024Z,79.93
2017-12-29T06:52:35.590Z,79.64
2017-12-29T06:53:16.158Z,79.93
2017-12-29T06:53:56.724Z,79.74
2017-12-29T06:54:37.282Z,79.55
2017-12-29T06:55:17.845Z,79.64
2017-12-29T06:55:58.403Z,79.83
2017-12-29T06:56:38.979Z,80.11
2017-12-29T06:57:19.530Z,79.83
2017-12-29T06:58:00.087Z,80.02
2017-12-29T06:58:40.650Z,79.93
2017-12-29T06:59:21.202Z,79.74
2017-12-29T07:00:02.159Z,79.74
2017-12-29T07:00:45.191Z,79.74
2017-12-29T07:01:33.257Z,79.93
2017-12-29T07:02:14.001Z,79.93
2017-12-29T07:02:54.585Z,80.11
2017-12-29T07:03:35.147Z,79.26
2017-12-29T07:04:15.700Z,79.45
2017-12-29T07:04:56.268Z,79.45
2017-12-29T07:05:36.935Z,79.55
2017-12-29T07:06:18.289Z,79.07
2017-12-29T07:06:58.467Z,79.45
2017-12-29T07:07:39.179Z,79.45
2017-12-29T07:08:20.061Z,79.36
2017-12-29T07:09:00.640Z,79.45
2017-12-29T07:09:41.206Z,79.64
2017-12-29T07:10:21.768Z,79.17
2017-12-29T07:11:02.342Z,79.07
2017-12-29T07:11:42.910Z,79.26
2017-12-29T07:12:23.553Z,79.17
2017-12-29T07:13:04.719Z,79.17
2017-12-29T07:13:45.282Z,79.36
2017-12-29T07:14:25.855Z,79.17
2017-12-29T07:15:06.536Z,79.17
2017-12-29T07:15:47.342Z,79.17
2017-12-29T07:16:28.013Z,79.26
2017-12-29T07:17:08.627Z,79.07
2017-12-29T07:17:49.584Z,79.55
2017-12-29T07:18:30.147Z,79.45
2017-12-29T07:19:11.303Z,79.45
2017-12-29T07:19:52.030Z,79.45
2017-12-29T07:20:33.183Z,79.36
2017-12-29T07:21:13.752Z,79.36
2017-12-29T07:21:54.313Z,79.26
2017-12-29T07:22:35.187Z,79.55
2017-12-29T07:23:15.758Z,79.64
2017-12-29T07:23:56.731Z,79.45
2017-12-29T07:24:37.999Z,79.07
2017-12-29T07:25:18.664Z,78.98
2017-12-29T07:25:59.302Z,79.36
2017-12-29T07:26:40.618Z,79.36
2017-12-29T07:27:21.461Z,79.26
2017-12-29T07:28:02.181Z,79.17
2017-12-29T07:28:42.746Z,79.36
2017-12-29T07:29:23.474Z,79.26
2017-12-29T07:30:04.359Z,78.98
2017-12-29T07:30:44.879Z,78.69
2017-12-29T07:31:25.637Z,78.79
2017-12-29T07:32:06.858Z,78.98
2017-12-29T07:32:47.713Z,78.79
2017-12-29T07:33:28.274Z,79.07
2017-12-29T07:34:08.946Z,79.17
2017-12-29T07:34:49.502Z,78.79
2017-12-29T07:35:30.328Z,79.07
2017-12-29T07:36:11.090Z,78.88
2017-12-29T07:36:52.022Z,78.5
2017-12-29T07:37:32.616Z,78.41
2017-12-29T07:38:13.645Z,78.13
2017-12-29T07:38:54.703Z,78.22
2017-12-29T07:39:35.539Z,78.5
2017-12-29T07:40:17.240Z,78.59
2017-12-29T07:40:58.143Z,78.69
2017-12-29T07:41:39.088Z,78.88
2017-12-29T07:42:19.657Z,79.07
2017-12-29T07:43:00.228Z,79.17
2017-12-29T07:43:41.109Z,78.98
2017-12-29T07:44:21.796Z,78.79
2017-12-29T07:45:03.053Z,78.59
2017-12-29T07:45:43.919Z,78.5
2017-12-29T07:46:24.747Z,78.69
2017-12-29T07:47:05.849Z,78.69
2017-12-29T07:47:46.628Z,78.79
2017-12-29T07:48:27.339Z,78.59
2017-12-29T07:49:07.972Z,78.31
2017-12-29T07:49:48.628Z,78.41
2017-12-29T07:50:29.342Z,78.31
2017-12-29T07:51:10.041Z,78.31
2017-12-29T07:51:50.617Z,78.41
2017-12-29T07:52:31.343Z,78.41
2017-12-29T07:53:12.057Z,78.31
2017-12-29T07:53:52.768Z,78.41
2017-12-29T07:54:33.550Z,78.03
2017-12-29T07:55:14.353Z,78.31
2017-12-29T07:55:55.027Z,78.22
2017-12-29T07:56:35.845Z,78.22
2017-12-29T07:57:16.662Z,78.31
2017-12-29T07:57:57.417Z,78.41
2017-12-29T07:58:38.076Z,78.13
2017-12-29T07:59:18.665Z,78.5
2017-12-29T07:59:59.379Z,78.31
2017-12-29T08:00:39.953Z,78.31
2017-12-29T08:01:20.515Z,78.59
2017-12-29T08:02:01.106Z,78.79
2017-12-29T08:02:41.677Z,78.79
2017-12-29T08:03:25.480Z,78.79
2017-12-29T08:04:06.409Z,78.59
2017-12-29T08:04:47.459Z,78.69
2017-12-29T08:05:28.281Z,78.69
2017-12-29T08:06:08.958Z,78.13
2017-12-29T08:06:49.579Z,78.31
2017-12-29T08:07:30.248Z,78.22
2017-12-29T08:08:10.812Z,78.22
2017-12-29T08:08:51.453Z,78.22
2017-12-29T08:09:32.046Z,78.5
2017-12-29T08:10:12.610Z,78.31
2017-12-29T08:10:53.172Z,78.03
2017-12-29T08:11:33.769Z,78.03
2017-12-29T08:12:14.393Z,78.13
2017-12-29T08:12:55.022Z,78.13
2017-12-29T08:13:35.596Z,78.31
2017-12-29T08:14:16.179Z,77.75
2017-12-29T08:14:56.848Z,78.31
2017-12-29T08:15:37.464Z,78.31
2017-12-29T08:16:18.026Z,78.31
2017-12-29T08:16:58.602Z,78.41
2017-12-29T08:17:39.156Z,78.31
2017-12-29T08:18:19.727Z,78.22
2017-12-29T08:19:00.297Z,78.41
2017-12-29T08:19:40.846Z,78.31
2017-12-29T08:20:21.429Z,78.79
2017-12-29T08:21:02.007Z,78.88
2017-12-29T08:21:42.563Z,78.79
2017-12-29T08:22:23.136Z,78.22
2017-12-29T08:23:03.705Z,78.79
2017-12-29T08:23:44.285Z,78.59
2017-12-29T08:24:25.174Z,78.69
2017-12-29T08:25:05.783Z,78.98
2017-12-29T08:25:46.559Z,78.31
2017-12-29T08:26:27.128Z,78.31
2017-12-29T08:27:07.710Z,78.13
2017-12-29T08:27:48.611Z,78.31
2017-12-29T08:28:29.190Z,78.31
2017-12-29T08:29:09.779Z,78.22
2017-12-29T08:29:50.424Z,78.31
2017-12-29T08:30:30.991Z,77.65
2017-12-29T08:31:11.656Z,78.5
2017-12-29T08:31:52.226Z,78.41
2017-12-29T08:32:32.827Z,78.16
2017-12-29T08:33:13.393Z,78.31
2017-12-29T08:33:53.954Z,78.41
2017-12-29T08:34:34.519Z,78.35
2017-12-29T08:35:15.177Z,77.78
2017-12-29T08:35:55.790Z,77.75
2017-12-29T08:36:36.382Z,77.78
2017-12-29T08:37:16.954Z,77.75
2017-12-29T08:37:57.541Z,78.41
2017-12-29T08:38:38.136Z,78.22
2017-12-29T08:39:18.739Z,78.41
2017-12-29T08:39:59.339Z,78.31
2017-12-29T08:40:39.922Z,78.41
2017-12-29T08:41:20.479Z,78.16
2017-12-29T08:42:01.287Z,78.54
2017-12-29T08:42:41.849Z,78.31
2017-12-29T08:43:22.490Z,78.45
2017-12-29T08:44:03.062Z,78.31